sensor_id;sensor_type;location;lat;lon;timestamp;pressure;altitude;pressure_sealevel;temperature;humidity
50302;BME280;36550;50.472;19.744;2023-01-30T00:00:05;98078.69;;;-2.89;80.06
50302;BME280;36550;50.472;19.744;2023-01-30T00:02:49;98072.65;;;-2.90;80.17
50302;BME280;36550;50.472;19.744;2023-01-30T00:05:33;98060.95;;;-2.87;80.16
50302;BME280;36550;50.472;19.744;2023-01-30T00:08:18;98048.74;;;-2.85;80.16
50302;BME280;36550;50.472;19.744;2023-01-30T00:11:04;98041.67;;;-2.83;80.23
50302;BME280;36550;50.472;19.744;2023-01-30T00:13:49;98031.67;;;-2.82;80.09
50302;BME280;36550;50.472;19.744;2023-01-30T00:16:33;98022.85;;;-2.83;80.23
50302;BME280;36550;50.472;19.744;2023-01-30T00:19:18;98014.24;;;-2.84;80.06
50302;BME280;36550;50.472;19.744;2023-01-30T00:22:01;98012.65;;;-2.86;79.82
50302;BME280;36550;50.472;19.744;2023-01-30T00:24:45;98007.47;;;-2.89;79.89
50302;BME280;36550;50.472;19.744;2023-01-30T00:27:29;98004.09;;;-2.93;79.91
50302;BME280;36550;50.472;19.744;2023-01-30T00:30:13;98000.12;;;-2.96;80.06
50302;BME280;36550;50.472;19.744;2023-01-30T00:32:58;97994.13;;;-2.96;80.01
50302;BME280;36550;50.472;19.744;2023-01-30T00:35:46;97986.59;;;-2.94;80.12
50302;BME280;36550;50.472;19.744;2023-01-30T00:38:30;97979.04;;;-2.91;80.23
50302;BME280;36550;50.472;19.744;2023-01-30T00:41:15;97975.79;;;-2.88;80.38
50302;BME280;36550;50.472;19.744;2023-01-30T00:44:00;97976.05;;;-2.87;80.16
50302;BME280;36550;50.472;19.744;2023-01-30T00:47:03;97980.60;;;-2.85;80.14
50302;BME280;36550;50.472;19.744;2023-01-30T00:49:51;97975.42;;;-2.80;80.13
50302;BME280;36550;50.472;19.744;2023-01-30T00:52:34;97969.84;;;-2.77;79.92
50302;BME280;36550;50.472;19.744;2023-01-30T00:55:18;97964.61;;;-2.76;79.83
50302;BME280;36550;50.472;19.744;2023-01-30T00:58:02;97966.08;;;-2.77;79.78
50302;BME280;36550;50.472;19.744;2023-01-30T01:00:47;97960.23;;;-2.76;79.68
50302;BME280;36550;50.472;19.744;2023-01-30T01:03:31;97954.07;;;-2.73;79.46
50302;BME280;36550;50.472;19.744;2023-01-30T01:06:16;97952.02;;;-2.66;79.42
50302;BME280;36550;50.472;19.744;2023-01-30T01:08:59;97945.92;;;-2.60;79.29
50302;BME280;36550;50.472;19.744;2023-01-30T01:11:43;97932.59;;;-2.55;79.31
50302;BME280;36550;50.472;19.744;2023-01-30T01:14:28;97930.58;;;-2.52;79.28
50302;BME280;36550;50.472;19.744;2023-01-30T01:17:12;97927.34;;;-2.50;79.32
50302;BME280;36550;50.472;19.744;2023-01-30T01:19:56;97920.33;;;-2.52;79.14
50302;BME280;36550;50.472;19.744;2023-01-30T01:22:39;97917.39;;;-2.57;79.00
50302;BME280;36550;50.472;19.744;2023-01-30T01:25:24;97912.55;;;-2.63;78.91
50302;BME280;36550;50.472;19.744;2023-01-30T01:28:08;97904.29;;;-2.63;78.89
50302;BME280;36550;50.472;19.744;2023-01-30T01:30:52;97896.98;;;-2.59;78.96
50302;BME280;36550;50.472;19.744;2023-01-30T01:33:36;97889.14;;;-2.54;78.90
50302;BME280;36550;50.472;19.744;2023-01-30T01:36:21;97888.07;;;-2.50;78.83
50302;BME280;36550;50.472;19.744;2023-01-30T01:39:05;97879.08;;;-2.47;78.82
50302;BME280;36550;50.472;19.744;2023-01-30T01:41:49;97877.17;;;-2.45;78.88
50302;BME280;36550;50.472;19.744;2023-01-30T01:44:57;97870.02;;;-2.44;78.72
50302;BME280;36550;50.472;19.744;2023-01-30T01:47:47;97862.59;;;-2.43;78.52
50302;BME280;36550;50.472;19.744;2023-01-30T01:50:56;97862.73;;;-2.43;78.38
50302;BME280;36550;50.472;19.744;2023-01-30T01:53:46;97858.04;;;-2.41;78.21
50302;BME280;36550;50.472;19.744;2023-01-30T01:56:33;97853.34;;;-2.35;77.91
50302;BME280;36550;50.472;19.744;2023-01-30T01:59:23;97846.61;;;-2.29;77.77
50302;BME280;36550;50.472;19.744;2023-01-30T02:02:11;97837.60;;;-2.23;77.56
50302;BME280;36550;50.472;19.744;2023-01-30T02:04:57;97836.06;;;-2.20;77.57
50302;BME280;36550;50.472;19.744;2023-01-30T02:10:53;97816.27;;;-2.18;77.26
50302;BME280;36550;50.472;19.744;2023-01-30T02:13:41;97800.17;;;-2.19;76.83
50302;BME280;36550;50.472;19.744;2023-01-30T02:16:24;97793.42;;;-2.22;76.77
50302;BME280;36550;50.472;19.744;2023-01-30T02:19:49;97785.15;;;-2.26;76.57
50302;BME280;36550;50.472;19.744;2023-01-30T02:23:03;97787.36;;;-2.26;76.58
50302;BME280;36550;50.472;19.744;2023-01-30T02:26:07;97778.70;;;-2.24;76.53
50302;BME280;36550;50.472;19.744;2023-01-30T02:38:22;97757.06;;;-2.52;76.01
50302;BME280;36550;50.472;19.744;2023-01-30T02:41:26;97751.73;;;-2.62;76.16
50302;BME280;36550;50.472;19.744;2023-01-30T02:44:25;97749.56;;;-2.69;76.23
50302;BME280;36550;50.472;19.744;2023-01-30T02:47:30;97734.54;;;-2.69;76.28
50302;BME280;36550;50.472;19.744;2023-01-30T02:50:21;97728.41;;;-2.71;76.22
50302;BME280;36550;50.472;19.744;2023-01-30T02:53:08;97719.41;;;-2.74;76.25
50302;BME280;36550;50.472;19.744;2023-01-30T02:55:52;97714.77;;;-2.79;76.13
50302;BME280;36550;50.472;19.744;2023-01-30T02:58:41;97707.14;;;-2.86;76.01
50302;BME280;36550;50.472;19.744;2023-01-30T03:01:52;97704.20;;;-2.95;75.90
50302;BME280;36550;50.472;19.744;2023-01-30T03:11:03;97701.92;;;-3.16;76.19
50302;BME280;36550;50.472;19.744;2023-01-30T03:13:54;97695.98;;;-3.20;76.26
50302;BME280;36550;50.472;19.744;2023-01-30T03:16:40;97700.45;;;-3.25;76.61
50302;BME280;36550;50.472;19.744;2023-01-30T03:19:25;97699.16;;;-3.30;76.78
50302;BME280;36550;50.472;19.744;2023-01-30T03:22:11;97678.64;;;-3.35;76.88
50302;BME280;36550;50.472;19.744;2023-01-30T03:24:55;97679.51;;;-3.35;77.06
50302;BME280;36550;50.472;19.744;2023-01-30T03:27:39;97678.36;;;-3.35;77.27
50302;BME280;36550;50.472;19.744;2023-01-30T03:30:24;97673.11;;;-3.36;77.42
50302;BME280;36550;50.472;19.744;2023-01-30T03:33:09;97663.36;;;-3.37;77.52
50302;BME280;36550;50.472;19.744;2023-01-30T03:35:53;97648.59;;;-3.40;77.59
50302;BME280;36550;50.472;19.744;2023-01-30T03:38:37;97647.88;;;-3.43;77.72
50302;BME280;36550;50.472;19.744;2023-01-30T03:41:21;97640.47;;;-3.44;77.67
50302;BME280;36550;50.472;19.744;2023-01-30T03:44:06;97629.84;;;-3.51;78.08
50302;BME280;36550;50.472;19.744;2023-01-30T03:46:49;97631.86;;;-3.58;78.14
50302;BME280;36550;50.472;19.744;2023-01-30T03:49:33;97624.39;;;-3.65;78.19
50302;BME280;36550;50.472;19.744;2023-01-30T03:52:17;97618.73;;;-3.70;78.27
50302;BME280;36550;50.472;19.744;2023-01-30T03:55:01;97617.26;;;-3.73;78.39
50302;BME280;36550;50.472;19.744;2023-01-30T03:57:45;97604.88;;;-3.72;78.61
50302;BME280;36550;50.472;19.744;2023-01-30T04:00:29;97612.08;;;-3.70;78.72
50302;BME280;36550;50.472;19.744;2023-01-30T04:03:13;97611.83;;;-3.70;78.89
50302;BME280;36550;50.472;19.744;2023-01-30T04:05:58;97602.52;;;-3.67;79.20
50302;BME280;36550;50.472;19.744;2023-01-30T04:08:42;97586.70;;;-3.62;79.20
50302;BME280;36550;50.472;19.744;2023-01-30T04:11:26;97579.84;;;-3.55;79.26
50302;BME280;36550;50.472;19.744;2023-01-30T04:14:10;97577.64;;;-3.49;79.34
50302;BME280;36550;50.472;19.744;2023-01-30T04:16:54;97565.32;;;-3.43;79.28
50302;BME280;36550;50.472;19.744;2023-01-30T04:19:37;97568.69;;;-3.41;79.27
50302;BME280;36550;50.472;19.744;2023-01-30T04:22:21;97560.99;;;-3.40;79.29
50302;BME280;36550;50.472;19.744;2023-01-30T04:25:05;97540.16;;;-3.37;79.23
50302;BME280;36550;50.472;19.744;2023-01-30T04:27:49;97532.17;;;-3.33;79.15
50302;BME280;36550;50.472;19.744;2023-01-30T04:30:33;97531.58;;;-3.28;79.10
50302;BME280;36550;50.472;19.744;2023-01-30T04:33:17;97533.54;;;-3.25;79.16
50302;BME280;36550;50.472;19.744;2023-01-30T04:36:02;97519.87;;;-3.25;79.19
50302;BME280;36550;50.472;19.744;2023-01-30T04:38:47;97518.02;;;-3.24;79.21
50302;BME280;36550;50.472;19.744;2023-01-30T04:41:30;97526.97;;;-3.22;79.02
50302;BME280;36550;50.472;19.744;2023-01-30T04:44:14;97533.23;;;-3.19;78.99
50302;BME280;36550;50.472;19.744;2023-01-30T04:46:58;97525.98;;;-3.19;79.01
50302;BME280;36550;50.472;19.744;2023-01-30T04:49:42;97528.07;;;-3.17;78.90
50302;BME280;36550;50.472;19.744;2023-01-30T04:52:26;97524.77;;;-3.15;78.84
50302;BME280;36550;50.472;19.744;2023-01-30T04:55:10;97526.46;;;-3.12;78.79
50302;BME280;36550;50.472;19.744;2023-01-30T04:57:53;97532.17;;;-3.11;78.69
50302;BME280;36550;50.472;19.744;2023-01-30T05:00:38;97541.80;;;-3.11;78.70
50302;BME280;36550;50.472;19.744;2023-01-30T05:03:22;97539.27;;;-3.10;78.68
50302;BME280;36550;50.472;19.744;2023-01-30T05:06:06;97531.11;;;-3.07;78.62
50302;BME280;36550;50.472;19.744;2023-01-30T05:08:51;97534.11;;;-3.01;78.47
50302;BME280;36550;50.472;19.744;2023-01-30T05:11:36;97524.73;;;-3.00;78.36
50302;BME280;36550;50.472;19.744;2023-01-30T05:14:20;97510.52;;;-2.98;78.31
50302;BME280;36550;50.472;19.744;2023-01-30T05:17:04;97495.31;;;-2.99;78.23
50302;BME280;36550;50.472;19.744;2023-01-30T05:19:47;97493.65;;;-2.97;77.93
50302;BME280;36550;50.472;19.744;2023-01-30T05:22:31;97493.54;;;-2.93;77.83
50302;BME280;36550;50.472;19.744;2023-01-30T05:25:15;97495.47;;;-2.91;77.81
50302;BME280;36550;50.472;19.744;2023-01-30T05:27:59;97480.45;;;-2.89;77.67
50302;BME280;36550;50.472;19.744;2023-01-30T05:30:43;97480.02;;;-2.90;77.43
50302;BME280;36550;50.472;19.744;2023-01-30T05:33:27;97483.50;;;-2.91;77.45
50302;BME280;36550;50.472;19.744;2023-01-30T05:36:14;97475.67;;;-2.89;77.42
50302;BME280;36550;50.472;19.744;2023-01-30T05:38:58;97462.21;;;-2.85;77.30
50302;BME280;36550;50.472;19.744;2023-01-30T05:41:41;97465.17;;;-2.82;77.15
50302;BME280;36550;50.472;19.744;2023-01-30T05:44:25;97467.26;;;-2.79;77.25
50302;BME280;36550;50.472;19.744;2023-01-30T05:47:09;97468.05;;;-2.77;77.22
50302;BME280;36550;50.472;19.744;2023-01-30T05:49:52;97454.86;;;-2.75;77.14
50302;BME280;36550;50.472;19.744;2023-01-30T05:52:36;97451.48;;;-2.76;77.07
50302;BME280;36550;50.472;19.744;2023-01-30T05:55:20;97453.95;;;-2.73;76.99
50302;BME280;36550;50.472;19.744;2023-01-30T05:58:04;97441.59;;;-2.69;76.87
50302;BME280;36550;50.472;19.744;2023-01-30T06:00:48;97427.41;;;-2.67;76.88
50302;BME280;36550;50.472;19.744;2023-01-30T06:03:32;97414.41;;;-2.67;76.74
50302;BME280;36550;50.472;19.744;2023-01-30T06:06:16;97409.12;;;-2.67;76.69
50302;BME280;36550;50.472;19.744;2023-01-30T06:09:00;97409.05;;;-2.66;76.76
50302;BME280;36550;50.472;19.744;2023-01-30T06:11:44;97414.70;;;-2.66;76.59
50302;BME280;36550;50.472;19.744;2023-01-30T06:14:28;97420.27;;;-2.62;76.50
50302;BME280;36550;50.472;19.744;2023-01-30T06:17:12;97410.03;;;-2.58;76.51
50302;BME280;36550;50.472;19.744;2023-01-30T06:19:56;97399.90;;;-2.56;76.46
50302;BME280;36550;50.472;19.744;2023-01-30T06:22:39;97392.73;;;-2.55;76.49
50302;BME280;36550;50.472;19.744;2023-01-30T06:25:23;97397.29;;;-2.54;76.38
50302;BME280;36550;50.472;19.744;2023-01-30T06:28:07;97397.96;;;-2.54;76.37
50302;BME280;36550;50.472;19.744;2023-01-30T06:30:51;97382.16;;;-2.52;76.23
50302;BME280;36550;50.472;19.744;2023-01-30T06:33:35;97375.90;;;-2.47;76.18
50302;BME280;36550;50.472;19.744;2023-01-30T06:36:19;97368.53;;;-2.44;76.02
50302;BME280;36550;50.472;19.744;2023-01-30T06:39:03;97377.52;;;-2.42;76.21
50302;BME280;36550;50.472;19.744;2023-01-30T06:41:47;97378.43;;;-2.41;75.93
50302;BME280;36550;50.472;19.744;2023-01-30T06:44:31;97375.17;;;-2.39;76.04
50302;BME280;36550;50.472;19.744;2023-01-30T06:47:15;97376.55;;;-2.38;76.06
50302;BME280;36550;50.472;19.744;2023-01-30T06:49:59;97373.08;;;-2.36;75.89
50302;BME280;36550;50.472;19.744;2023-01-30T06:52:44;97363.39;;;-2.32;75.77
50302;BME280;36550;50.472;19.744;2023-01-30T06:55:29;97356.35;;;-2.26;75.66
50302;BME280;36550;50.472;19.744;2023-01-30T06:58:13;97359.39;;;-2.22;75.53
50302;BME280;36550;50.472;19.744;2023-01-30T07:00:57;97356.75;;;-2.20;75.47
50302;BME280;36550;50.472;19.744;2023-01-30T07:03:41;97349.33;;;-2.20;75.07
50302;BME280;36550;50.472;19.744;2023-01-30T07:06:26;97349.77;;;-2.21;74.84
50302;BME280;36550;50.472;19.744;2023-01-30T07:09:10;97356.57;;;-2.23;74.81
50302;BME280;36550;50.472;19.744;2023-01-30T07:11:54;97357.36;;;-2.22;74.77
50302;BME280;36550;50.472;19.744;2023-01-30T07:14:37;97352.79;;;-2.21;74.80
50302;BME280;36550;50.472;19.744;2023-01-30T07:17:22;97350.94;;;-2.15;74.66
50302;BME280;36550;50.472;19.744;2023-01-30T07:20:06;97345.98;;;-2.11;74.73
50302;BME280;36550;50.472;19.744;2023-01-30T07:22:54;97341.80;;;-2.07;74.82
50302;BME280;36550;50.472;19.744;2023-01-30T07:25:38;97329.46;;;-2.02;74.39
50302;BME280;36550;50.472;19.744;2023-01-30T07:28:22;97313.15;;;-1.98;74.49
50302;BME280;36550;50.472;19.744;2023-01-30T07:31:06;97303.98;;;-1.91;74.34
50302;BME280;36550;50.472;19.744;2023-01-30T07:33:50;97299.34;;;-1.82;74.29
50302;BME280;36550;50.472;19.744;2023-01-30T07:36:34;97292.98;;;-1.72;74.27
50302;BME280;36550;50.472;19.744;2023-01-30T07:39:18;97291.54;;;-1.65;74.18
50302;BME280;36550;50.472;19.744;2023-01-30T07:42:03;97298.98;;;-1.64;73.64
50302;BME280;36550;50.472;19.744;2023-01-30T07:44:47;97296.84;;;-1.65;73.67
50302;BME280;36550;50.472;19.744;2023-01-30T07:47:31;97298.52;;;-1.65;73.55
50302;BME280;36550;50.472;19.744;2023-01-30T07:50:15;97308.02;;;-1.64;73.42
50302;BME280;36550;50.472;19.744;2023-01-30T07:53:05;97301.77;;;-1.56;73.04
50302;BME280;36550;50.472;19.744;2023-01-30T07:55:50;97300.46;;;-1.43;73.09
50302;BME280;36550;50.472;19.744;2023-01-30T07:58:33;97303.49;;;-1.33;72.74
50302;BME280;36550;50.472;19.744;2023-01-30T08:01:18;97306.06;;;-1.22;72.78
50302;BME280;36550;50.472;19.744;2023-01-30T08:04:02;97305.14;;;-1.11;72.93
50302;BME280;36550;50.472;19.744;2023-01-30T08:06:46;97288.75;;;-1.06;72.21
50302;BME280;36550;50.472;19.744;2023-01-30T08:09:29;97284.39;;;-1.03;72.03
50302;BME280;36550;50.472;19.744;2023-01-30T08:12:14;97271.40;;;-0.99;72.34
50302;BME280;36550;50.472;19.744;2023-01-30T08:14:57;97284.83;;;-0.96;72.24
50302;BME280;36550;50.472;19.744;2023-01-30T08:17:41;97287.75;;;-0.93;72.16
50302;BME280;36550;50.472;19.744;2023-01-30T08:20:26;97294.71;;;-0.91;72.12
50302;BME280;36550;50.472;19.744;2023-01-30T08:23:10;97293.89;;;-0.90;71.97
50302;BME280;36550;50.472;19.744;2023-01-30T08:25:56;97286.95;;;-0.85;71.73
50302;BME280;36550;50.472;19.744;2023-01-30T08:28:41;97283.12;;;-0.83;71.16
50302;BME280;36550;50.472;19.744;2023-01-30T08:31:25;97271.09;;;-0.82;71.33
50302;BME280;36550;50.472;19.744;2023-01-30T08:34:09;97259.85;;;-0.81;70.72
50302;BME280;36550;50.472;19.744;2023-01-30T08:36:53;97259.69;;;-0.81;70.79
50302;BME280;36550;50.472;19.744;2023-01-30T08:39:37;97265.81;;;-0.79;70.86
50302;BME280;36550;50.472;19.744;2023-01-30T08:42:21;97255.30;;;-0.74;70.95
50302;BME280;36550;50.472;19.744;2023-01-30T08:45:05;97239.83;;;-0.71;70.62
50302;BME280;36550;50.472;19.744;2023-01-30T08:47:49;97241.58;;;-0.70;70.51
50302;BME280;36550;50.472;19.744;2023-01-30T08:50:33;97239.36;;;-0.67;70.88
50302;BME280;36550;50.472;19.744;2023-01-30T08:53:18;97226.35;;;-0.66;70.57
50302;BME280;36550;50.472;19.744;2023-01-30T08:56:02;97219.35;;;-0.66;70.70
50302;BME280;36550;50.472;19.744;2023-01-30T08:58:47;97221.37;;;-0.67;70.62
50302;BME280;36550;50.472;19.744;2023-01-30T09:01:32;97220.64;;;-0.69;70.28
50302;BME280;36550;50.472;19.744;2023-01-30T09:04:15;97212.25;;;-0.70;70.02
50302;BME280;36550;50.472;19.744;2023-01-30T09:06:59;97211.85;;;-0.70;70.12
50302;BME280;36550;50.472;19.744;2023-01-30T09:09:44;97206.23;;;-0.69;70.23
50302;BME280;36550;50.472;19.744;2023-01-30T09:12:29;97204.41;;;-0.69;70.45
50302;BME280;36550;50.472;19.744;2023-01-30T09:15:12;97198.21;;;-0.71;70.53
50302;BME280;36550;50.472;19.744;2023-01-30T09:17:56;97201.46;;;-0.68;70.71
50302;BME280;36550;50.472;19.744;2023-01-30T09:20:42;97187.34;;;-0.62;70.32
50302;BME280;36550;50.472;19.744;2023-01-30T09:23:26;97184.55;;;-0.54;70.61
50302;BME280;36550;50.472;19.744;2023-01-30T09:26:10;97175.84;;;-0.47;70.24
50302;BME280;36550;50.472;19.744;2023-01-30T09:28:53;97184.57;;;-0.38;70.42
50302;BME280;36550;50.472;19.744;2023-01-30T09:31:38;97175.88;;;-0.30;70.76
50302;BME280;36550;50.472;19.744;2023-01-30T09:34:22;97155.02;;;-0.24;70.64
50302;BME280;36550;50.472;19.744;2023-01-30T09:37:11;97162.27;;;-0.22;70.84
50302;BME280;36550;50.472;19.744;2023-01-30T09:39:55;97156.60;;;-0.14;71.18
50302;BME280;36550;50.472;19.744;2023-01-30T09:45:34;97145.02;;;-0.04;71.79
50302;BME280;36550;50.472;19.744;2023-01-30T09:48:29;97147.78;;;0.00;72.17
50302;BME280;36550;50.472;19.744;2023-01-30T09:51:30;97135.27;;;0.09;72.60
50302;BME280;36550;50.472;19.744;2023-01-30T09:54:25;97115.11;;;0.12;72.79
50302;BME280;36550;50.472;19.744;2023-01-30T09:57:20;97106.95;;;0.13;73.11
50302;BME280;36550;50.472;19.744;2023-01-30T10:00:11;97103.91;;;0.10;74.00
50302;BME280;36550;50.472;19.744;2023-01-30T10:05:56;97085.02;;;-0.04;74.86
50302;BME280;36550;50.472;19.744;2023-01-30T10:12:02;97074.18;;;-0.06;75.91
50302;BME280;36550;50.472;19.744;2023-01-30T10:20:51;97064.23;;;-0.28;76.65
50302;BME280;36550;50.472;19.744;2023-01-30T10:23:56;97068.73;;;-0.33;76.96
50302;BME280;36550;50.472;19.744;2023-01-30T10:26:44;97060.59;;;-0.33;77.12
50302;BME280;36550;50.472;19.744;2023-01-30T10:29:35;97062.09;;;-0.36;77.28
50302;BME280;36550;50.472;19.744;2023-01-30T10:32:41;97060.84;;;-0.34;77.39
50302;BME280;36550;50.472;19.744;2023-01-30T10:35:33;97052.38;;;-0.29;77.46
50302;BME280;36550;50.472;19.744;2023-01-30T10:38:29;97049.52;;;-0.23;77.47
50302;BME280;36550;50.472;19.744;2023-01-30T10:41:26;97048.75;;;-0.18;77.32
50302;BME280;36550;50.472;19.744;2023-01-30T10:44:12;97032.23;;;-0.13;77.22
50302;BME280;36550;50.472;19.744;2023-01-30T10:53:09;97029.73;;;0.20;77.95
50302;BME280;36550;50.472;19.744;2023-01-30T10:56:21;97029.27;;;0.32;77.73
50302;BME280;36550;50.472;19.744;2023-01-30T11:05:37;97023.79;;;0.70;77.06
50302;BME280;36550;50.472;19.744;2023-01-30T11:08:27;97017.16;;;0.83;76.92
50302;BME280;36550;50.472;19.744;2023-01-30T11:11:27;97020.25;;;0.87;76.88
50302;BME280;36550;50.472;19.744;2023-01-30T11:14:12;97028.81;;;0.82;76.88
50302;BME280;36550;50.472;19.744;2023-01-30T11:16:56;97029.95;;;0.70;76.91
50302;BME280;36550;50.472;19.744;2023-01-30T11:19:41;97028.02;;;0.63;77.02
50302;BME280;36550;50.472;19.744;2023-01-30T11:22:25;97019.73;;;0.54;77.21
50302;BME280;36550;50.472;19.744;2023-01-30T11:25:18;97017.50;;;0.46;77.29
50302;BME280;36550;50.472;19.744;2023-01-30T11:28:04;97013.55;;;0.46;77.50
50302;BME280;36550;50.472;19.744;2023-01-30T11:30:57;97010.00;;;0.43;77.69
50302;BME280;36550;50.472;19.744;2023-01-30T11:33:42;96996.54;;;0.35;77.77
50302;BME280;36550;50.472;19.744;2023-01-30T11:36:29;97001.39;;;0.28;77.95
50302;BME280;36550;50.472;19.744;2023-01-30T11:41:59;96985.26;;;0.21;78.39
50302;BME280;36550;50.472;19.744;2023-01-30T11:44:46;96979.88;;;0.18;78.76
50302;BME280;36550;50.472;19.744;2023-01-30T11:47:29;96983.09;;;0.17;78.86
50302;BME280;36550;50.472;19.744;2023-01-30T11:50:17;96981.44;;;0.21;78.93
50302;BME280;36550;50.472;19.744;2023-01-30T11:53:04;96973.40;;;0.29;79.09
50302;BME280;36550;50.472;19.744;2023-01-30T11:55:59;96973.67;;;0.46;79.19
50302;BME280;36550;50.472;19.744;2023-01-30T11:58:55;96979.55;;;0.67;79.14
50302;BME280;36550;50.472;19.744;2023-01-30T12:01:41;96967.62;;;0.77;79.11
50302;BME280;36550;50.472;19.744;2023-01-30T12:04:27;96958.23;;;0.84;79.04
50302;BME280;36550;50.472;19.744;2023-01-30T12:07:18;96950.14;;;0.87;79.02
50302;BME280;36550;50.472;19.744;2023-01-30T12:10:30;96942.29;;;0.85;79.13
50302;BME280;36550;50.472;19.744;2023-01-30T12:13:19;96933.13;;;0.83;79.23
50302;BME280;36550;50.472;19.744;2023-01-30T12:16:27;96932.50;;;0.79;79.18
50302;BME280;36550;50.472;19.744;2023-01-30T12:19:45;96935.55;;;0.82;79.30
50302;BME280;36550;50.472;19.744;2023-01-30T12:22:45;96933.77;;;0.83;79.37
50302;BME280;36550;50.472;19.744;2023-01-30T12:25:36;96931.27;;;0.86;79.38
50302;BME280;36550;50.472;19.744;2023-01-30T12:28:52;96931.73;;;0.84;79.32
50302;BME280;36550;50.472;19.744;2023-01-30T12:31:43;96926.20;;;0.86;79.29
50302;BME280;36550;50.472;19.744;2023-01-30T12:34:29;96932.55;;;0.92;79.35
50302;BME280;36550;50.472;19.744;2023-01-30T12:40:45;96924.10;;;0.97;79.68
50302;BME280;36550;50.472;19.744;2023-01-30T12:43:57;96940.49;;;0.91;80.12
50302;BME280;36550;50.472;19.744;2023-01-30T12:47:03;96931.95;;;0.80;81.08
50302;BME280;36550;50.472;19.744;2023-01-30T12:50:01;96916.60;;;0.68;81.49
50302;BME280;36550;50.472;19.744;2023-01-30T12:53:08;96935.31;;;0.57;81.55
50302;BME280;36550;50.472;19.744;2023-01-30T12:56:18;96929.77;;;0.44;82.06
50302;BME280;36550;50.472;19.744;2023-01-30T12:59:32;96921.19;;;0.47;82.25
50302;BME280;36550;50.472;19.744;2023-01-30T13:05:50;96933.96;;;0.40;85.47
50302;BME280;36550;50.472;19.744;2023-01-30T13:08:49;96942.23;;;0.50;83.69
50302;BME280;36550;50.472;19.744;2023-01-30T13:20:53;96912.13;;;0.47;83.34
50302;BME280;36550;50.472;19.744;2023-01-30T13:26:44;96921.20;;;0.32;83.61
50302;BME280;36550;50.472;19.744;2023-01-30T13:29:32;96919.74;;;0.34;83.92
50302;BME280;36550;50.472;19.744;2023-01-30T13:32:36;96915.23;;;0.41;84.02
50302;BME280;36550;50.472;19.744;2023-01-30T13:35:34;96906.94;;;0.46;84.01
50302;BME280;36550;50.472;19.744;2023-01-30T13:38:23;96905.95;;;0.49;83.85
50302;BME280;36550;50.472;19.744;2023-01-30T13:41:10;96907.52;;;0.50;84.03
50302;BME280;36550;50.472;19.744;2023-01-30T13:43:56;96910.83;;;0.50;83.79
50302;BME280;36550;50.472;19.744;2023-01-30T13:46:40;96905.35;;;0.53;83.67
50302;BME280;36550;50.472;19.744;2023-01-30T13:52:26;96894.18;;;0.40;83.84
50302;BME280;36550;50.472;19.744;2023-01-30T13:55:50;96900.89;;;0.35;84.00
50302;BME280;36550;50.472;19.744;2023-01-30T13:58:47;96901.68;;;0.35;83.88
50302;BME280;36550;50.472;19.744;2023-01-30T14:04:44;96886.52;;;0.38;84.21
50302;BME280;36550;50.472;19.744;2023-01-30T14:07:40;96888.63;;;0.40;84.28
50302;BME280;36550;50.472;19.744;2023-01-30T14:10:26;96885.29;;;0.37;84.56
50302;BME280;36550;50.472;19.744;2023-01-30T14:13:13;96883.73;;;0.33;84.52
50302;BME280;36550;50.472;19.744;2023-01-30T14:16:02;96884.08;;;0.33;84.51
50302;BME280;36550;50.472;19.744;2023-01-30T14:18:47;96888.18;;;0.33;84.46
50302;BME280;36550;50.472;19.744;2023-01-30T14:21:31;96885.48;;;0.34;84.75
50302;BME280;36550;50.472;19.744;2023-01-30T14:24:21;96881.08;;;0.38;84.49
50302;BME280;36550;50.472;19.744;2023-01-30T14:27:23;96875.63;;;0.39;84.69
50302;BME280;36550;50.472;19.744;2023-01-30T14:30:37;96880.44;;;0.39;84.70
50302;BME280;36550;50.472;19.744;2023-01-30T14:39:35;96874.89;;;0.34;84.86
50302;BME280;36550;50.472;19.744;2023-01-30T14:42:24;96876.83;;;0.28;85.13
50302;BME280;36550;50.472;19.744;2023-01-30T14:45:15;96872.05;;;0.25;85.42
50302;BME280;36550;50.472;19.744;2023-01-30T14:51:10;96882.36;;;0.28;85.29
50302;BME280;36550;50.472;19.744;2023-01-30T14:57:17;96881.77;;;0.26;85.35
50302;BME280;36550;50.472;19.744;2023-01-30T15:00:18;96887.39;;;0.28;85.24
50302;BME280;36550;50.472;19.744;2023-01-30T15:03:08;96889.31;;;0.29;85.43
50302;BME280;36550;50.472;19.744;2023-01-30T15:05:59;96891.73;;;0.28;85.63
50302;BME280;36550;50.472;19.744;2023-01-30T15:08:44;96891.17;;;0.29;85.65
50302;BME280;36550;50.472;19.744;2023-01-30T15:11:31;96891.11;;;0.27;85.68
50302;BME280;36550;50.472;19.744;2023-01-30T15:14:27;96888.01;;;0.24;85.62
50302;BME280;36550;50.472;19.744;2023-01-30T15:17:29;96895.42;;;0.22;85.63
50302;BME280;36550;50.472;19.744;2023-01-30T15:20:24;96902.23;;;0.19;85.75
50302;BME280;36550;50.472;19.744;2023-01-30T15:23:49;96899.27;;;0.21;85.81
50302;BME280;36550;50.472;19.744;2023-01-30T15:32:36;96906.67;;;0.25;85.83
50302;BME280;36550;50.472;19.744;2023-01-30T15:35:22;96906.58;;;0.23;85.74
50302;BME280;36550;50.472;19.744;2023-01-30T15:38:23;96910.89;;;0.20;85.89
50302;BME280;36550;50.472;19.744;2023-01-30T15:41:08;96912.42;;;0.22;86.05
50302;BME280;36550;50.472;19.744;2023-01-30T15:44:24;96914.48;;;0.23;85.82
50302;BME280;36550;50.472;19.744;2023-01-30T15:47:21;96918.88;;;0.24;85.98
50302;BME280;36550;50.472;19.744;2023-01-30T15:50:09;96933.77;;;0.23;85.90
50302;BME280;36550;50.472;19.744;2023-01-30T15:52:54;96930.51;;;0.20;85.95
50302;BME280;36550;50.472;19.744;2023-01-30T15:55:40;96929.87;;;0.18;85.98
50302;BME280;36550;50.472;19.744;2023-01-30T15:58:26;96933.86;;;0.16;86.06
50302;BME280;36550;50.472;19.744;2023-01-30T16:01:16;96937.52;;;0.16;86.31
50302;BME280;36550;50.472;19.744;2023-01-30T16:04:01;96941.77;;;0.15;86.21
50302;BME280;36550;50.472;19.744;2023-01-30T16:06:50;96949.27;;;0.16;86.24
50302;BME280;36550;50.472;19.744;2023-01-30T16:09:34;96951.94;;;0.18;86.42
50302;BME280;36550;50.472;19.744;2023-01-30T16:12:25;96958.11;;;0.18;86.75
50302;BME280;36550;50.472;19.744;2023-01-30T16:15:24;96962.28;;;0.17;86.80